Time;durP1;ratioP1;P1;durP2;ratioP2;P2;SDS_P1;SDS_P2;PMS_P1;PMS_P2;Temp;Humidity;BMP_temperature;BMP_pressure;BME280_temperature;BME280_humidity;BME280_pressure;Samples;Min_cycle;Max_cycle;Signal;HPM_P1;HPM_P2
2024/01/15 00:00:14;;;;;;;15.63;6.97;;;;;;;0.84;100.00;100309.31;5050096;28;20478;-67
2024/01/15 00:02:39;;;;;;;12.10;5.05;;;;;;;0.83;100.00;100314.69;5050012;28;20461;-67
2024/01/15 00:05:05;;;;;;;11.50;5.68;;;;;;;0.80;100.00;100307.94;5049997;28;20116;-68
2024/01/15 00:07:30;;;;;;;12.60;5.78;;;;;;;0.73;100.00;100293.72;5049850;28;20065;-68
2024/01/15 00:09:56;;;;;;;13.35;5.75;;;;;;;0.76;100.00;100296.09;5049883;28;20039;-67
2024/01/15 00:12:21;;;;;;;10.77;5.30;;;;;;;0.67;100.00;100283.00;5050081;28;20052;-68
2024/01/15 00:14:46;;;;;;;7.90;5.40;;;;;;;0.68;100.00;100290.72;5049031;28;20040;-67
2024/01/15 00:17:12;;;;;;;10.38;4.65;;;;;;;0.68;100.00;100289.91;5049980;28;20033;-67
2024/01/15 00:19:38;;;;;;;5.78;3.50;;;;;;;0.62;100.00;100286.06;5049763;28;20035;-67
2024/01/15 00:22:04;;;;;;;7.75;3.95;;;;;;;0.57;100.00;100291.75;5049741;28;20028;-67
2024/01/15 00:24:29;;;;;;;13.15;4.22;;;;;;;0.46;100.00;100275.38;5049733;28;20058;-67
2024/01/15 00:26:55;;;;;;;5.32;3.17;;;;;;;0.41;100.00;100271.38;5049705;28;20938;-67
2024/01/15 00:29:20;;;;;;;9.27;4.30;;;;;;;0.44;100.00;100272.91;5049266;28;20037;-67
2024/01/15 00:31:46;;;;;;;8.18;3.97;;;;;;;0.47;100.00;100277.03;5049589;28;20025;-67
2024/01/15 00:34:11;;;;;;;6.57;3.38;;;;;;;0.45;100.00;100279.81;5048264;28;20029;-67
2024/01/15 00:36:36;;;;;;;5.85;3.72;;;;;;;0.44;100.00;100273.72;5049587;28;20033;-67
2024/01/15 00:39:04;;;;;;;5.65;3.53;;;;;;;0.43;100.00;100269.44;5049563;28;20033;-67
2024/01/15 00:41:30;;;;;;;5.95;3.20;;;;;;;0.34;100.00;100257.22;5049685;28;20056;-67
2024/01/15 00:43:56;;;;;;;7.13;3.10;;;;;;;0.32;100.00;100258.34;5049575;28;20032;-67
2024/01/15 00:46:21;;;;;;;4.47;3.00;;;;;;;0.25;100.00;100252.81;5049582;28;20377;-67
2024/01/15 00:48:47;;;;;;;11.60;4.13;;;;;;;0.21;100.00;100264.59;5049390;28;20480;-68
2024/01/15 00:51:12;;;;;;;7.78;3.97;;;;;;;0.13;100.00;100260.06;5049388;28;20025;-67
2024/01/15 00:53:38;;;;;;;7.15;3.75;;;;;;;0.02;100.00;100243.69;5049485;28;20112;-67
2024/01/15 00:56:04;;;;;;;7.80;4.03;;;;;;;-0.02;100.00;100251.84;5049425;28;20583;-67
2024/01/15 00:58:29;;;;;;;7.43;3.80;;;;;;;-0.05;100.00;100251.31;5049567;28;20040;-67
2024/01/15 01:00:55;;;;;;;11.05;4.57;;;;;;;-0.13;100.00;100231.03;5048071;28;20033;-67
2024/01/15 01:03:21;;;;;;;16.65;4.80;;;;;;;-0.11;100.00;100246.59;5049395;28;20488;-67
2024/01/15 01:05:49;;;;;;;14.77;5.53;;;;;;;-0.13;100.00;100248.53;5049270;28;20057;-67
2024/01/15 01:08:15;;;;;;;15.95;7.07;;;;;;;-0.18;100.00;100238.50;5049141;28;20025;-68
2024/01/15 01:10:42;;;;;;;19.80;7.22;;;;;;;-0.23;100.00;100235.47;5049225;28;20028;-68
2024/01/15 01:13:08;;;;;;;16.77;6.57;;;;;;;-0.27;100.00;100234.09;5047528;28;20549;-67
2024/01/15 01:15:33;;;;;;;16.85;7.53;;;;;;;-0.27;100.00;100234.09;5049227;28;20025;-68
2024/01/15 01:17:59;;;;;;;22.55;8.20;;;;;;;-0.29;100.00;100239.50;5049244;28;20368;-67
2024/01/15 01:20:24;;;;;;;18.00;7.90;;;;;;;-0.30;100.00;100242.25;5049091;28;20025;-67
2024/01/15 01:22:50;;;;;;;14.60;7.80;;;;;;;-0.39;100.00;100228.22;5049196;28;20431;-67
2024/01/15 01:25:15;;;;;;;14.88;6.88;;;;;;;-0.37;100.00;100231.50;5047736;28;20048;-67
2024/01/15 01:27:41;;;;;;;14.93;5.13;;;;;;;-0.39;100.00;100222.97;5050838;28;20044;-67
2024/01/15 01:30:06;;;;;;;13.13;5.53;;;;;;;-0.38;100.00;100223.78;5052923;28;20036;-67
2024/01/15 01:32:32;;;;;;;15.57;5.63;;;;;;;-0.42;100.00;100230.28;5052980;28;20037;-67
2024/01/15 01:34:57;;;;;;;10.95;4.40;;;;;;;-0.40;100.00;100239.66;5052941;28;20037;-68
2024/01/15 01:37:23;;;;;;;13.85;4.90;;;;;;;-0.44;100.00;100233.06;5052884;28;20035;-67
2024/01/15 01:39:48;;;;;;;7.90;3.40;;;;;;;-0.48;100.00;100236.91;5052789;28;20083;-67
2024/01/15 01:42:13;;;;;;;8.75;3.20;;;;;;;-0.49;100.00;100237.88;5052710;28;20033;-67
2024/01/15 01:44:39;;;;;;;9.15;4.25;;;;;;;-0.47;100.00;100242.00;5052757;28;20056;-67
2024/01/15 01:47:05;;;;;;;5.47;2.70;;;;;;;-0.44;100.00;100246.16;5052614;28;20028;-67
2024/01/15 01:49:31;;;;;;;6.85;2.40;;;;;;;-0.43;100.00;100244.34;5052258;28;20029;-67
2024/01/15 01:51:58;;;;;;;17.70;2.42;;;;;;;-0.43;100.00;100250.41;5052506;28;20028;-67
2024/01/15 01:54:26;;;;;;;4.03;2.63;;;;;;;-0.45;100.00;100242.72;5052603;28;20033;-67
2024/01/15 01:56:52;;;;;;;6.70;2.00;;;;;;;-0.45;100.00;100245.31;5052883;28;20095;-68
2024/01/15 01:59:18;;;;;;;3.63;1.67;;;;;;;-0.44;100.00;100240.91;5052496;28;20476;-67
2024/01/15 02:01:44;;;;;;;5.20;1.80;;;;;;;-0.44;100.00;100251.38;5052354;28;20155;-68
2024/01/15 02:04:11;;;;;;;2.45;2.13;;;;;;;-0.48;100.00;100235.09;5052428;28;20029;-67
2024/01/15 02:06:36;;;;;;;4.00;1.67;;;;;;;-0.42;100.00;100248.59;5052197;28;20061;-67
2024/01/15 02:09:03;;;;;;;4.53;1.77;;;;;;;-0.46;100.00;100233.19;5050999;28;20032;-67
2024/01/15 02:11:28;;;;;;;5.68;2.70;;;;;;;-0.42;100.00;100249.44;5052018;28;20036;-67
2024/01/15 02:13:53;;;;;;;2.10;1.08;;;;;;;-0.47;100.00;100235.94;5052214;28;20037;-67
2024/01/15 02:16:20;;;;;;;3.53;1.38;;;;;;;-0.45;100.00;100242.72;5050859;28;20472;-68
2024/01/15 02:18:46;;;;;;;3.55;1.40;;;;;;;-0.45;100.00;100237.47;5052159;28;20043;-67
2024/01/15 02:21:12;;;;;;;1.58;1.30;;;;;;;-0.48;100.00;100232.47;5051968;28;20029;-68
2024/01/15 02:23:38;;;;;;;2.33;1.13;;;;;;;-0.52;100.00;100223.28;5052001;28;20033;-68
2024/01/15 02:26:05;;;;;;;5.88;1.52;;;;;;;-0.51;100.00;100237.19;5051924;28;20542;-68
2024/01/15 02:28:32;;;;;;;3.08;1.45;;;;;;;-0.59;100.00;100227.41;5051965;28;20094;-68
2024/01/15 02:30:57;;;;;;;3.95;1.55;;;;;;;-0.57;100.00;100228.09;5051821;28;20020;-68
2024/01/15 02:33:23;;;;;;;3.30;1.63;;;;;;;-0.59;100.00;100226.59;5051872;28;20373;-67
2024/01/15 02:35:50;;;;;;;5.75;1.58;;;;;;;-0.61;100.00;100221.47;5051792;28;20856;-67
2024/01/15 02:38:16;;;;;;;3.47;1.83;;;;;;;-0.62;100.00;100230.31;5050967;28;20163;-67
2024/01/15 02:40:41;;;;;;;4.43;2.03;;;;;;;-0.64;100.00;100219.16;5051572;28;20459;-67
2024/01/15 02:43:07;;;;;;;5.22;2.47;;;;;;;-0.62;100.00;100225.06;5051603;28;20044;-68
2024/01/15 02:45:32;;;;;;;6.97;2.03;;;;;;;-0.61;100.00;100226.72;5051502;28;20036;-68
2024/01/15 02:47:58;;;;;;;4.43;1.27;;;;;;;-0.72;100.00;100216.41;5051505;28;20883;-68
2024/01/15 02:50:23;;;;;;;5.85;1.33;;;;;;;-0.63;100.00;100228.63;5051475;28;20025;-67
2024/01/15 02:52:49;;;;;;;2.63;1.70;;;;;;;-0.63;100.00;100222.59;5051381;28;20078;-67
2024/01/15 02:55:14;;;;;;;4.55;1.45;;;;;;;-0.64;100.00;100226.19;5051335;28;20041;-67
2024/01/15 02:57:39;;;;;;;4.35;1.40;;;;;;;-0.64;100.00;100234.84;5051330;28;20041;-67
2024/01/15 03:00:07;;;;;;;2.58;1.40;;;;;;;-0.70;100.00;100231.00;5051176;28;20028;-67
2024/01/15 03:02:32;;;;;;;7.25;2.25;;;;;;;-0.67;100.00;100237.75;5051427;28;20044;-67
2024/01/15 03:04:57;;;;;;;5.75;1.65;;;;;;;-0.67;100.00;100235.97;5049859;28;20037;-67
2024/01/15 03:07:23;;;;;;;6.65;1.40;;;;;;;-0.68;100.00;100242.19;5051104;28;20045;-68
2024/01/15 03:09:48;;;;;;;3.17;1.50;;;;;;;-0.70;100.00;100235.44;5050952;28;20025;-68
2024/01/15 03:12:13;;;;;;;9.82;1.95;;;;;;;-0.70;100.00;100233.63;5051066;28;20365;-67
2024/01/15 03:14:39;;;;;;;3.97;1.55;;;;;;;-0.70;100.00;100240.66;5049881;28;20537;-67
2024/01/15 03:17:04;;;;;;;4.90;1.38;;;;;;;-0.70;100.00;100235.44;5051107;28;20116;-67
2024/01/15 03:19:30;;;;;;;5.43;1.90;;;;;;;-0.73;100.00;100228.66;5050932;28;20106;-67
2024/01/15 03:21:56;;;;;;;1.83;1.35;;;;;;;-0.71;100.00;100228.50;5049644;28;20033;-67
2024/01/15 03:24:21;;;;;;;2.10;1.13;;;;;;;-0.77;100.00;100236.94;5050781;28;20454;-67
2024/01/15 03:26:47;;;;;;;7.72;3.63;;;;;;;-0.75;100.00;100227.16;5050778;28;20120;-67
2024/01/15 03:29:12;;;;;;;2.30;1.33;;;;;;;-0.76;100.00;100228.09;5050704;28;20553;-67
2024/01/15 03:31:37;;;;;;;5.57;1.60;;;;;;;-0.83;100.00;100206.91;5050677;28;20380;-67
2024/01/15 03:34:03;;;;;;;6.10;1.75;;;;;;;-0.82;100.00;100208.53;5050615;28;20114;-67
2024/01/15 03:36:28;;;;;;;3.92;0.63;;;;;;;-0.75;100.00;100224.53;5050643;28;20108;-67
2024/01/15 03:38:54;;;;;;;2.72;0.90;;;;;;;-0.76;100.00;100209.78;5050525;28;20048;-67
2024/01/15 03:41:19;;;;;;;5.95;1.70;;;;;;;-0.76;100.00;100215.00;5050568;28;20037;-67
2024/01/15 03:43:45;;;;;;;1.38;1.02;;;;;;;-0.79;100.00;100207.44;5050500;28;20040;-67
2024/01/15 03:46:10;;;;;;;6.82;2.00;;;;;;;-0.79;100.00;100217.91;5050438;28;20032;-68
2024/01/15 03:48:36;;;;;;;5.28;1.38;;;;;;;-0.79;100.00;100221.34;5050306;28;20522;-67
2024/01/15 03:51:01;;;;;;;2.10;1.42;;;;;;;-0.78;100.00;100207.31;5050416;28;20539;-67
2024/01/15 03:53:26;;;;;;;2.25;1.08;;;;;;;-0.81;100.00;100202.38;5050157;28;20035;-67
2024/01/15 03:55:52;;;;;;;5.93;1.98;;;;;;;-0.79;100.00;100210.06;5050227;28;20143;-67
2024/01/15 03:58:18;;;;;;;1.88;1.10;;;;;;;-0.78;100.00;100206.50;5050372;28;20057;-67
2024/01/15 04:00:43;;;;;;;2.55;1.40;;;;;;;-0.77;100.00;100203.72;5050129;28;20044;-67
2024/01/15 04:03:09;;;;;;;3.88;1.35;;;;;;;-0.83;100.00;100204.28;5050214;28;20043;-67
2024/01/15 04:05:35;;;;;;;3.15;1.80;;;;;;;-0.77;100.00;100208.13;5049939;28;20138;-67
2024/01/15 04:08:00;;;;;;;4.82;2.72;;;;;;;-0.75;100.00;100201.78;5049973;28;20457;-67
2024/01/15 04:10:26;;;;;;;2.60;1.60;;;;;;;-0.76;100.00;100188.84;5049786;28;20035;-67
2024/01/15 04:12:51;;;;;;;5.50;1.05;;;;;;;-0.69;100.00;100189.94;5049838;28;20031;-67
2024/01/15 04:15:16;;;;;;;6.20;1.42;;;;;;;-0.73;100.00;100173.69;5049902;28;20496;-68
2024/01/15 04:17:42;;;;;;;8.88;1.45;;;;;;;-0.59;100.00;100187.31;5049907;28;20174;-68
2024/01/15 04:20:08;;;;;;;5.35;2.05;;;;;;;-0.54;100.00;100175.44;5049800;28;20051;-67
2024/01/15 04:22:35;;;;;;;8.48;1.95;;;;;;;-0.52;100.00;100180.53;5049583;28;20044;-68
2024/01/15 04:25:00;;;;;;;5.03;1.25;;;;;;;-0.41;100.00;100183.00;5049557;28;20029;-67
2024/01/15 04:27:25;;;;;;;8.57;1.80;;;;;;;-0.39;100.00;100173.19;5049801;28;20047;-68
2024/01/15 04:29:51;;;;;;;6.43;1.55;;;;;;;-0.36;100.00;100185.19;5049765;28;20112;-67
2024/01/15 04:32:16;;;;;;;7.70;2.53;;;;;;;-0.35;100.00;100182.41;5049756;28;20107;-67
2024/01/15 04:34:41;;;;;;;5.03;2.10;;;;;;;-0.28;100.00;100180.88;5049714;28;20040;-67
2024/01/15 04:37:07;;;;;;;5.07;2.15;;;;;;;-0.25;100.00;100174.53;5049718;28;20039;-68
2024/01/15 04:39:32;;;;;;;5.18;1.63;;;;;;;-0.16;100.00;100173.66;5049508;28;20442;-67
2024/01/15 04:41:58;;;;;;;5.05;1.67;;;;;;;-0.16;100.00;100159.72;5049590;28;20043;-68
2024/01/15 04:44:23;;;;;;;8.90;3.25;;;;;;;-0.13;100.00;100168.16;5049450;28;20029;-67
2024/01/15 04:46:48;;;;;;;8.10;2.20;;;;;;;-0.12;100.00;100161.09;5049541;28;20124;-68
2024/01/15 04:49:13;;;;;;;3.45;2.08;;;;;;;-0.13;100.00;100160.28;5048118;28;20029;-68
2024/01/15 04:51:39;;;;;;;10.23;2.00;;;;;;;-0.13;100.00;100155.03;5049434;28;20029;-68
2024/01/15 04:54:04;;;;;;;12.52;2.33;;;;;;;-0.14;100.00;100152.56;5048273;28;20029;-68
2024/01/15 04:56:30;;;;;;;11.10;2.75;;;;;;;-0.13;100.00;100160.28;5049374;28;20029;-68
2024/01/15 04:58:55;;;;;;;9.48;2.22;;;;;;;-0.13;100.00;100157.66;5049473;28;20033;-67
2024/01/15 05:01:20;;;;;;;5.28;2.60;;;;;;;-0.11;100.00;100157.50;5050159;28;20025;-68
2024/01/15 05:03:46;;;;;;;8.13;1.73;;;;;;;-0.13;100.00;100157.66;5053480;28;20039;-68
2024/01/15 05:06:12;;;;;;;8.05;1.92;;;;;;;-0.04;100.00;100171.69;5053186;28;20057;-68
2024/01/15 05:08:38;;;;;;;2.30;1.70;;;;;;;-0.01;100.00;100156.47;5053468;28;20036;-68
2024/01/15 05:11:03;;;;;;;10.13;2.72;;;;;;;0.03;100.00;100166.66;5053321;28;20037;-68
2024/01/15 05:13:28;;;;;;;4.47;1.73;;;;;;;0.05;100.00;100167.34;5053304;28;20438;-68
2024/01/15 05:15:54;;;;;;;9.80;3.90;;;;;;;0.06;100.00;100175.09;5053270;28;20078;-67
2024/01/15 05:18:19;;;;;;;11.45;3.88;;;;;;;0.07;100.00;100178.53;5053226;28;20037;-68
2024/01/15 05:20:44;;;;;;;7.03;1.30;;;;;;;0.05;100.00;100165.56;5051911;28;20063;-67
2024/01/15 05:23:10;;;;;;;4.03;1.75;;;;;;;0.02;100.00;100171.09;5053089;28;20052;-68
2024/01/15 05:25:35;;;;;;;5.45;1.38;;;;;;;-0.02;100.00;100162.72;5051795;28;20563;-67
2024/01/15 05:28:01;;;;;;;2.33;1.02;;;;;;;-0.11;100.00;100155.69;5051550;28;20051;-68
2024/01/15 05:30:26;;;;;;;3.70;1.38;;;;;;;-0.08;100.00;100152.81;5052911;28;20115;-67
2024/01/15 05:32:51;;;;;;;2.83;0.98;;;;;;;-0.11;100.00;100154.88;5052888;28;20120;-67
2024/01/15 05:35:17;;;;;;;3.75;1.80;;;;;;;-0.15;100.00;100143.88;5052718;28;20556;-67
2024/01/15 05:37:45;;;;;;;2.60;1.70;;;;;;;-0.19;100.00;100139.88;5052818;28;20027;-67
2024/01/15 05:40:11;;;;;;;4.07;1.58;;;;;;;-0.19;100.00;100141.69;5052422;28;20033;-68
2024/01/15 05:42:36;;;;;;;2.13;1.25;;;;;;;-0.18;100.00;100138.94;5052702;28;20487;-68
2024/01/15 05:45:04;;;;;;;5.07;1.42;;;;;;;-0.17;100.00;100142.38;5052662;28;20028;-68
2024/01/15 05:47:30;;;;;;;1.58;0.65;;;;;;;-0.13;100.00;100141.94;5052711;28;20033;-67
2024/01/15 05:49:56;;;;;;;4.18;1.38;;;;;;;-0.15;100.00;100135.19;5052596;28;20111;-67
2024/01/15 05:52:21;;;;;;;4.07;1.63;;;;;;;-0.07;100.00;100146.59;5052522;28;20530;-67
2024/01/15 05:54:47;;;;;;;1.70;1.00;;;;;;;-0.05;100.00;100151.69;5052561;28;20037;-67
2024/01/15 05:57:12;;;;;;;2.60;1.10;;;;;;;-0.02;100.00;100144.34;5052403;28;20082;-67
2024/01/15 05:59:38;;;;;;;2.83;1.23;;;;;;;-0.02;100.00;100133.06;5052247;28;20029;-67
2024/01/15 06:02:04;;;;;;;8.35;2.10;;;;;;;0.01;100.00;100142.44;5051069;28;20365;-68
2024/01/15 06:04:29;;;;;;;3.38;1.58;;;;;;;0.02;100.00;100141.44;5052266;28;20060;-74
2024/01/15 06:06:54;;;;;;;5.68;1.70;;;;;;;0.03;100.00;100135.22;5052132;28;20049;-74
2024/01/15 06:09:20;;;;;;;3.08;1.65;;;;;;;0.03;100.00;100141.31;5052127;28;20032;-74
2024/01/15 06:11:45;;;;;;;4.57;1.92;;;;;;;0.03;100.00;100129.97;5051972;28;20551;-74
2024/01/15 06:14:10;;;;;;;4.93;1.60;;;;;;;0.06;100.00;100134.94;5050907;28;20036;-74
2024/01/15 06:16:36;;;;;;;5.63;1.90;;;;;;;-0.07;100.00;100109.06;5051905;28;20131;-74
2024/01/15 06:19:01;;;;;;;5.50;1.83;;;;;;;-0.06;100.00;100114.16;5051926;28;20059;-74
2024/01/15 06:21:27;;;;;;;2.92;1.45;;;;;;;-0.01;100.00;100119.78;5051814;28;20048;-74
2024/01/15 06:23:52;;;;;;;3.88;1.73;;;;;;;-0.04;100.00;100121.88;5051611;28;20036;-74
2024/01/15 06:26:17;;;;;;;7.45;1.75;;;;;;;-0.02;100.00;100122.56;5051844;28;20043;-74
2024/01/15 06:28:43;;;;;;;4.07;1.70;;;;;;;-0.02;100.00;100123.38;5051868;28;20041;-74
2024/01/15 06:31:08;;;;;;;4.47;1.65;;;;;;;-0.04;100.00;100121.88;5051796;28;20074;-74
2024/01/15 06:33:34;;;;;;;3.35;1.92;;;;;;;-0.07;100.00;100119.56;5051758;28;20025;-73
2024/01/15 06:35:59;;;;;;;4.07;1.83;;;;;;;-0.08;100.00;100121.38;5051636;28;20056;-74
2024/01/15 06:38:25;;;;;;;3.25;1.35;;;;;;;-0.10;100.00;100120.69;5051676;28;20143;-74
2024/01/15 06:40:51;;;;;;;4.72;2.22;;;;;;;-0.12;100.00;100114.75;5051651;28;20040;-73
2024/01/15 06:43:17;;;;;;;5.45;1.88;;;;;;;-0.14;100.00;100114.06;5051714;28;20037;-74
2024/01/15 06:45:43;;;;;;;3.40;1.55;;;;;;;-0.12;100.00;100112.13;5050486;28;20044;-75
2024/01/15 06:48:09;;;;;;;3.10;2.00;;;;;;;-0.10;100.00;100117.25;5051562;28;20111;-74
2024/01/15 06:50:34;;;;;;;4.57;1.90;;;;;;;-0.09;100.00;100122.31;5051593;28;20064;-75
2024/01/15 06:52:59;;;;;;;3.92;1.73;;;;;;;-0.11;100.00;100123.44;5051424;28;20140;-74
2024/01/15 06:55:25;;;;;;;6.40;2.53;;;;;;;-0.12;100.00;100116.56;5051429;28;20033;-75
2024/01/15 06:57:51;;;;;;;4.03;2.03;;;;;;;-0.15;100.00;100106.38;5051374;28;20496;-74
2024/01/15 07:00:17;;;;;;;4.22;2.50;;;;;;;-0.15;100.00;100116.84;5051236;28;20041;-74
2024/01/15 07:02:42;;;;;;;5.63;3.00;;;;;;;-0.17;100.00;100116.97;5051231;28;20384;-74
2024/01/15 07:05:08;;;;;;;5.35;2.25;;;;;;;-0.19;100.00;100103.19;5051266;28;20028;-74
2024/01/15 07:07:33;;;;;;;5.72;3.05;;;;;;;-0.07;100.00;100128.25;5051167;28;20636;-74
2024/01/15 07:09:59;;;;;;;4.55;1.90;;;;;;;-0.06;100.00;100121.19;5051094;28;20139;-74
2024/01/15 07:12:24;;;;;;;3.40;1.77;;;;;;;-0.04;100.00;100122.69;5051092;28;20538;-74
2024/01/15 07:14:49;;;;;;;5.50;2.60;;;;;;;0.01;100.00;100121.44;5051146;28;20060;-74
2024/01/15 07:17:15;;;;;;;4.43;2.17;;;;;;;-0.08;100.00;100115.28;5051091;28;20060;-74
2024/01/15 07:19:41;;;;;;;5.28;2.72;;;;;;;0.02;100.00;100117.84;5050856;28;20503;-74
2024/01/15 07:22:06;;;;;;;8.13;4.10;;;;;;;0.02;100.00;100120.47;5050823;28;20108;-75
2024/01/15 07:24:34;;;;;;;5.28;2.67;;;;;;;0.02;100.00;100116.03;5050588;28;20063;-74
2024/01/15 07:26:59;;;;;;;6.15;2.70;;;;;;;0.00;100.00;100107.53;5050772;28;20120;-74
2024/01/15 07:29:24;;;;;;;6.00;2.95;;;;;;;0.01;100.00;100121.44;5050816;28;20160;-75
2024/01/15 07:31:51;;;;;;;4.82;2.42;;;;;;;0.03;100.00;100119.50;5050884;28;20503;-74
2024/01/15 07:34:17;;;;;;;4.38;2.35;;;;;;;-0.02;100.00;100123.38;5050613;28;20484;-74
2024/01/15 07:36:44;;;;;;;3.67;2.30;;;;;;;0.01;100.00;100126.69;5050551;28;20096;-74
2024/01/15 07:39:09;;;;;;;11.88;5.10;;;;;;;-0.02;100.00;100131.25;5050665;28;20410;-75
2024/01/15 07:41:35;;;;;;;6.05;2.28;;;;;;;0.02;100.00;100139.63;5049066;28;20041;-74
2024/01/15 07:44:00;;;;;;;4.28;2.25;;;;;;;-0.19;100.00;100111.06;5050378;28;20520;-74
2024/01/15 07:46:25;;;;;;;7.07;2.63;;;;;;;-0.08;100.00;100137.09;5050782;28;20041;-74
2024/01/15 07:48:56;;;;;;;3.67;1.85;;;;;;;-0.15;100.00;100141.25;5050706;28;20103;-74
2024/01/15 07:51:24;;;;;;;3.33;1.80;;;;;;;-0.19;100.00;100139.88;5050193;28;20025;-74
2024/01/15 07:53:52;;;;;;;4.55;2.10;;;;;;;-0.22;100.00;100145.41;5048926;28;20052;-74
2024/01/15 07:56:17;;;;;;;4.40;2.10;;;;;;;-0.21;100.00;100144.44;5048901;28;20114;-74
2024/01/15 07:58:43;;;;;;;5.43;2.00;;;;;;;-0.22;100.00;100145.41;5049077;28;20037;-74
2024/01/15 08:01:08;;;;;;;3.72;2.38;;;;;;;-0.27;100.00;100135.34;5049808;28;20025;-75
2024/01/15 08:03:33;;;;;;;5.65;2.75;;;;;;;-0.22;100.00;100150.66;5049485;28;20029;-74
2024/01/15 08:05:59;;;;;;;5.32;2.40;;;;;;;-0.22;100.00;100134.94;5049528;28;20084;-74
2024/01/15 08:08:28;;;;;;;6.35;3.15;;;;;;;-0.22;100.00;100140.16;5049655;28;20040;-74
2024/01/15 08:10:54;;;;;;;8.77;3.30;;;;;;;-0.21;100.00;100149.66;5050033;28;20021;-74
2024/01/15 08:13:20;;;;;;;7.38;3.33;;;;;;;-0.19;100.00;100160.84;5050217;28;20106;-75
2024/01/15 08:15:45;;;;;;;7.93;3.15;;;;;;;-0.15;100.00;100161.41;5049849;28;20028;-74
2024/01/15 08:18:11;;;;;;;7.93;4.00;;;;;;;-0.15;100.00;100159.59;5050024;28;20037;-74
2024/01/15 08:20:37;;;;;;;8.88;3.63;;;;;;;-0.10;100.00;100167.03;5050194;28;20029;-74
2024/01/15 08:23:02;;;;;;;8.00;3.50;;;;;;;-0.08;100.00;100165.91;5049815;28;20029;-74
2024/01/15 08:25:28;;;;;;;6.70;2.90;;;;;;;-0.08;100.00;100167.69;5049505;28;20939;-75
2024/01/15 08:27:53;;;;;;;7.00;3.72;;;;;;;-0.08;100.00;100167.69;5049596;28;20033;-74
2024/01/15 08:30:20;;;;;;;8.10;4.18;;;;;;;-0.07;100.00;100172.81;5049159;28;20029;-75
2024/01/15 08:32:45;;;;;;;14.57;3.97;;;;;;;-0.08;100.00;100168.53;5039428;28;20446;-72
2024/01/15 08:35:11;;;;;;;5.40;3.35;;;;;;;-0.09;100.00;100159.00;5049078;28;20033;-72
2024/01/15 08:37:38;;;;;;;9.95;3.88;;;;;;;-0.12;100.00;100156.69;5048589;28;20112;-75
2024/01/15 08:40:03;;;;;;;7.38;3.45;;;;;;;-0.14;100.00;100161.25;5049882;28;20029;-75
2024/01/15 08:42:29;;;;;;;7.97;3.03;;;;;;;-0.15;100.00;100167.47;5047928;28;20959;-74
2024/01/15 08:44:54;;;;;;;6.10;3.30;;;;;;;-0.16;100.00;100173.66;5047969;28;20040;-74
2024/01/15 08:47:20;;;;;;;6.22;3.22;;;;;;;-0.11;100.00;100174.03;5049046;28;20496;-74
2024/01/15 08:49:46;;;;;;;7.80;4.13;;;;;;;-0.06;100.00;100187.53;5049061;28;20594;-74
2024/01/15 08:52:11;;;;;;;7.35;3.67;;;;;;;-0.02;100.00;100183.69;5049308;28;20612;-74
2024/01/15 08:54:36;;;;;;;8.98;4.13;;;;;;;-0.01;100.00;100172.22;5048939;28;20552;-72
2024/01/15 08:57:02;;;;;;;7.60;3.20;;;;;;;0.03;100.00;100172.75;5047789;28;20035;-73
2024/01/15 08:59:28;;;;;;;7.25;3.50;;;;;;;0.05;100.00;100183.09;5048215;28;20036;-74
2024/01/15 09:01:53;;;;;;;13.57;5.55;;;;;;;0.01;100.00;100187.00;5048001;28;20040;-74
2024/01/15 09:04:19;;;;;;;15.38;5.45;;;;;;;0.01;100.00;100185.19;5047240;28;20983;-74
2024/01/15 09:06:47;;;;;;;12.40;5.45;;;;;;;-0.01;100.00;100193.19;5048341;28;20459;-74
2024/01/15 09:09:16;;;;;;;6.90;4.53;;;;;;;-0.03;100.00;100183.81;5048084;28;20045;-74
2024/01/15 09:11:41;;;;;;;7.70;3.88;;;;;;;-0.03;100.00;100192.53;5048193;28;20040;-74
2024/01/15 09:14:08;;;;;;;8.70;4.70;;;;;;;-0.10;100.00;100196.69;5048338;28;20040;-74
2024/01/15 09:16:33;;;;;;;5.70;3.47;;;;;;;-0.13;100.00;100170.78;5048457;28;20036;-74
2024/01/15 09:18:59;;;;;;;8.95;4.85;;;;;;;-0.06;100.00;100177.06;5048699;28;20045;-74
2024/01/15 09:21:25;;;;;;;9.10;4.20;;;;;;;-0.06;100.00;100178.88;5049038;28;20100;-74
2024/01/15 09:23:50;;;;;;;8.82;4.70;;;;;;;-0.05;100.00;100185.78;5049124;28;20535;-74
2024/01/15 09:26:16;;;;;;;9.25;4.68;;;;;;;0.00;100.00;100178.31;5049230;28;20033;-74
2024/01/15 09:28:41;;;;;;;9.02;4.30;;;;;;;0.00;100.00;100178.31;5047034;28;20399;-74
2024/01/15 09:31:07;;;;;;;9.70;4.90;;;;;;;0.01;100.00;100182.56;5048946;28;20392;-74
2024/01/15 09:33:32;;;;;;;10.95;5.30;;;;;;;0.07;100.00;100181.97;5049022;28;20117;-74
2024/01/15 09:36:03;;;;;;;10.40;5.57;;;;;;;0.13;100.00;100168.31;5049046;28;20021;-74
2024/01/15 09:38:29;;;;;;;11.95;6.40;;;;;;;0.20;100.00;100173.78;5048955;28;20031;-74
2024/01/15 09:40:55;;;;;;;8.63;4.50;;;;;;;0.22;100.00;100170.03;5048586;28;20037;-73
2024/01/15 09:43:21;;;;;;;11.95;5.20;;;;;;;0.20;100.00;100171.16;5049024;28;20041;-74
2024/01/15 09:45:46;;;;;;;7.60;4.47;;;;;;;0.26;100.00;100164.50;5048892;28;20044;-74
2024/01/15 09:48:12;;;;;;;10.25;4.85;;;;;;;0.30;100.00;100169.31;5050963;28;20033;-74
2024/01/15 09:50:38;;;;;;;8.98;4.43;;;;;;;0.35;100.00;100176.75;5052704;28;20099;-74
2024/01/15 09:53:05;;;;;;;8.18;4.10;;;;;;;0.37;100.00;100180.88;5052513;28;20028;-74
2024/01/15 09:55:32;;;;;;;12.93;4.22;;;;;;;0.26;100.00;100180.22;5052537;28;20118;-74
2024/01/15 09:57:59;;;;;;;5.78;3.03;;;;;;;0.39;100.00;100191.19;5052470;28;20033;-74
2024/01/15 10:00:26;;;;;;;4.18;2.85;;;;;;;0.39;100.00;100194.66;5051938;28;20076;-74
2024/01/15 10:02:52;;;;;;;5.03;2.40;;;;;;;0.38;100.00;100198.25;5052260;28;20452;-74
2024/01/15 10:05:17;;;;;;;5.53;1.83;;;;;;;0.38;100.00;100177.25;5052185;28;20029;-74
2024/01/15 10:07:45;;;;;;;7.20;2.25;;;;;;;0.46;100.00;100175.69;5051988;28;20064;-74
2024/01/15 10:10:11;;;;;;;5.68;2.40;;;;;;;0.52;100.00;100186.41;5051969;28;20388;-74
2024/01/15 10:12:38;;;;;;;2.88;1.85;;;;;;;0.52;100.00;100185.59;5052205;28;20112;-74
2024/01/15 10:15:04;;;;;;;5.22;1.20;;;;;;;0.60;100.00;100180.44;5050575;28;20033;-74
2024/01/15 10:17:31;;;;;;;3.53;1.25;;;;;;;0.70;100.00;100177.75;5051962;28;20036;-74
2024/01/15 10:19:57;;;;;;;4.50;1.38;;;;;;;0.82;100.00;100176.56;5051939;28;20083;-74
2024/01/15 10:22:23;;;;;;;4.25;1.10;;;;;;;1.08;100.00;100181.88;5051946;28;20098;-75
2024/01/15 10:24:48;;;;;;;1.17;1.08;;;;;;;1.21;100.00;100190.19;5051767;28;20174;-74
2024/01/15 10:27:14;;;;;;;4.40;1.17;;;;;;;1.21;100.00;100186.72;5052005;28;20116;-74
2024/01/15 10:29:41;;;;;;;6.28;2.70;;;;;;;1.20;100.00;100183.25;5051685;28;20483;-74
2024/01/15 10:32:10;;;;;;;7.57;1.52;;;;;;;1.19;100.00;100181.63;5051832;28;20036;-75
2024/01/15 10:34:39;;;;;;;3.22;1.45;;;;;;;1.27;100.00;100189.56;5051750;28;20515;-73
2024/01/15 10:37:07;;;;;;;7.35;2.35;;;;;;;1.33;100.00;100180.25;5033889;28;20442;-74
2024/01/15 10:39:32;;;;;;;3.70;1.52;;;;;;;1.41;100.00;100188.16;5051367;28;20044;-74
2024/01/15 10:41:58;;;;;;;5.07;1.60;;;;;;;1.43;100.00;100195.91;5051624;28;20046;-74
2024/01/15 10:44:23;;;;;;;4.85;1.55;;;;;;;1.32;100.00;100186.47;5051605;28;20029;-74
2024/01/15 10:46:49;;;;;;;3.78;2.08;;;;;;;1.25;100.00;100185.44;5050336;28;20064;-74
2024/01/15 10:49:16;;;;;;;3.97;2.45;;;;;;;1.17;100.00;100186.19;5051703;28;20021;-74
2024/01/15 10:51:42;;;;;;;5.65;2.92;;;;;;;1.04;100.00;100178.69;5051504;28;20510;-74
2024/01/15 10:54:10;;;;;;;5.00;2.20;;;;;;;0.97;100.00;100172.44;5051264;28;20107;-74
2024/01/15 10:56:37;;;;;;;6.28;2.20;;;;;;;0.94;100.00;100169.25;5051668;28;20032;-74
2024/01/15 10:59:03;;;;;;;1.83;1.45;;;;;;;0.92;100.00;100168.56;5050572;28;20040;-74
2024/01/15 11:01:30;;;;;;;6.15;1.75;;;;;;;0.93;100.00;100175.50;5050920;28;20491;-74
2024/01/15 11:03:57;;;;;;;3.17;1.70;;;;;;;0.96;100.00;100178.63;5052409;28;20028;-74
2024/01/15 11:06:24;;;;;;;2.58;2.05;;;;;;;1.05;100.00;100174.31;5051118;28;20135;-74
2024/01/15 11:08:50;;;;;;;3.30;2.15;;;;;;;1.20;100.00;100179.81;5051089;28;20113;-74
2024/01/15 11:11:17;;;;;;;5.13;2.08;;;;;;;1.25;100.00;100181.00;5050809;28;20114;-74